sensor_id;sensor_type;location;lat;lon;timestamp;P1;durP1;ratioP1;P2;durP2;ratioP2
26303;SDS011;57113;48.680;8.890;2023-05-10T00:00:07;0.65;;;0.50;;
26303;SDS011;57113;48.680;8.890;2023-05-10T00:02:34;1.40;;;0.70;;
26303;SDS011;57113;48.680;8.890;2023-05-10T00:04:59;0.90;;;0.40;;
26303;SDS011;57113;48.680;8.890;2023-05-10T00:07:26;1.08;;;0.30;;
26303;SDS011;57113;48.680;8.890;2023-05-10T00:09:51;0.98;;;0.50;;
26303;SDS011;57113;48.680;8.890;2023-05-10T00:12:17;0.50;;;0.45;;
26303;SDS011;57113;48.680;8.890;2023-05-10T00:14:42;2.55;;;0.30;;
26303;SDS011;57113;48.680;8.890;2023-05-10T00:17:08;0.52;;;0.30;;
26303;SDS011;57113;48.680;8.890;2023-05-10T00:19:34;0.20;;;0.20;;
26303;SDS011;57113;48.680;8.890;2023-05-10T00:21:59;0.45;;;0.30;;
26303;SDS011;57113;48.680;8.890;2023-05-10T00:24:25;1.05;;;0.40;;
26303;SDS011;57113;48.680;8.890;2023-05-10T00:26:51;0.63;;;0.32;;
26303;SDS011;57113;48.680;8.890;2023-05-10T00:29:16;1.35;;;0.52;;
26303;SDS011;57113;48.680;8.890;2023-05-10T00:31:42;1.80;;;0.30;;
26303;SDS011;57113;48.680;8.890;2023-05-10T00:34:08;0.68;;;0.30;;
26303;SDS011;57113;48.680;8.890;2023-05-10T00:36:33;0.20;;;0.20;;
26303;SDS011;57113;48.680;8.890;2023-05-10T00:38:59;1.00;;;0.40;;
26303;SDS011;57113;48.680;8.890;2023-05-10T00:41:25;0.40;;;0.30;;
26303;SDS011;57113;48.680;8.890;2023-05-10T00:43:51;0.30;;;0.30;;
26303;SDS011;57113;48.680;8.890;2023-05-10T00:46:16;0.22;;;0.20;;
26303;SDS011;57113;48.680;8.890;2023-05-10T00:48:43;1.35;;;0.25;;
26303;SDS011;57113;48.680;8.890;2023-05-10T00:51:09;0.63;;;0.40;;
26303;SDS011;57113;48.680;8.890;2023-05-10T00:53:35;1.83;;;0.25;;
26303;SDS011;57113;48.680;8.890;2023-05-10T00:56:01;1.17;;;0.20;;
26303;SDS011;57113;48.680;8.890;2023-05-10T00:58:28;0.45;;;0.20;;
26303;SDS011;57113;48.680;8.890;2023-05-10T01:00:55;0.73;;;0.22;;
26303;SDS011;57113;48.680;8.890;2023-05-10T01:03:22;0.20;;;0.10;;
26303;SDS011;57113;48.680;8.890;2023-05-10T01:05:47;0.28;;;0.17;;
26303;SDS011;57113;48.680;8.890;2023-05-10T01:08:13;0.77;;;0.30;;
26303;SDS011;57113;48.680;8.890;2023-05-10T01:10:39;4.65;;;0.30;;
26303;SDS011;57113;48.680;8.890;2023-05-10T01:13:05;0.47;;;0.15;;
26303;SDS011;57113;48.680;8.890;2023-05-10T01:15:31;3.83;;;0.20;;
26303;SDS011;57113;48.680;8.890;2023-05-10T01:17:57;0.95;;;0.30;;
26303;SDS011;57113;48.680;8.890;2023-05-10T01:20:23;0.20;;;0.10;;
26303;SDS011;57113;48.680;8.890;2023-05-10T01:28:55;0.28;;;0.10;;
26303;SDS011;57113;48.680;8.890;2023-05-10T01:34:17;0.20;;;0.20;;
26303;SDS011;57113;48.680;8.890;2023-05-10T01:36:51;3.53;;;0.20;;
26303;SDS011;57113;48.680;8.890;2023-05-10T01:39:35;1.98;;;0.17;;
26303;SDS011;57113;48.680;8.890;2023-05-10T01:42:15;0.70;;;0.22;;
26303;SDS011;57113;48.680;8.890;2023-05-10T01:45:28;1.00;;;0.35;;
26303;SDS011;57113;48.680;8.890;2023-05-10T01:47:43;0.10;;;0.10;;
26303;SDS011;57113;48.680;8.890;2023-05-10T01:50:22;1.38;;;0.25;;
26303;SDS011;57113;48.680;8.890;2023-05-10T01:52:54;1.45;;;0.30;;
26303;SDS011;57113;48.680;8.890;2023-05-10T01:55:23;0.30;;;0.10;;
26303;SDS011;57113;48.680;8.890;2023-05-10T01:58:02;0.30;;;0.15;;
26303;SDS011;57113;48.680;8.890;2023-05-10T02:00:30;0.35;;;0.20;;
26303;SDS011;57113;48.680;8.890;2023-05-10T02:02:58;0.65;;;0.20;;
26303;SDS011;57113;48.680;8.890;2023-05-10T02:05:27;0.20;;;0.15;;
26303;SDS011;57113;48.680;8.890;2023-05-10T02:07:55;0.43;;;0.10;;
26303;SDS011;57113;48.680;8.890;2023-05-10T02:10:21;0.20;;;0.17;;
26303;SDS011;57113;48.680;8.890;2023-05-10T02:12:47;0.40;;;0.20;;
26303;SDS011;57113;48.680;8.890;2023-05-10T02:15:16;0.20;;;0.13;;
26303;SDS011;57113;48.680;8.890;2023-05-10T02:17:45;1.05;;;0.30;;
26303;SDS011;57113;48.680;8.890;2023-05-10T02:20:12;0.32;;;0.20;;
26303;SDS011;57113;48.680;8.890;2023-05-10T02:22:40;0.70;;;0.28;;
26303;SDS011;57113;48.680;8.890;2023-05-10T02:25:06;0.63;;;0.10;;
26303;SDS011;57113;48.680;8.890;2023-05-10T02:27:35;0.45;;;0.17;;
26303;SDS011;57113;48.680;8.890;2023-05-10T02:30:02;1.23;;;0.20;;
26303;SDS011;57113;48.680;8.890;2023-05-10T02:32:30;0.73;;;0.20;;
26303;SDS011;57113;48.680;8.890;2023-05-10T02:34:57;0.10;;;0.10;;
26303;SDS011;57113;48.680;8.890;2023-05-10T02:37:25;2.85;;;0.17;;
26303;SDS011;57113;48.680;8.890;2023-05-10T02:39:52;2.00;;;0.15;;
26303;SDS011;57113;48.680;8.890;2023-05-10T02:42:21;0.45;;;0.20;;
26303;SDS011;57113;48.680;8.890;2023-05-10T02:44:52;0.90;;;0.20;;
26303;SDS011;57113;48.680;8.890;2023-05-10T02:47:21;3.30;;;0.30;;
26303;SDS011;57113;48.680;8.890;2023-05-10T02:49:47;1.70;;;0.20;;
26303;SDS011;57113;48.680;8.890;2023-05-10T02:52:14;3.00;;;0.30;;
26303;SDS011;57113;48.680;8.890;2023-05-10T02:54:45;1.60;;;0.30;;
26303;SDS011;57113;48.680;8.890;2023-05-10T02:57:16;0.60;;;0.25;;
26303;SDS011;57113;48.680;8.890;2023-05-10T02:59:47;0.80;;;0.28;;
26303;SDS011;57113;48.680;8.890;2023-05-10T03:02:13;0.38;;;0.28;;
26303;SDS011;57113;48.680;8.890;2023-05-10T03:04:38;4.65;;;0.43;;
26303;SDS011;57113;48.680;8.890;2023-05-10T03:07:04;0.32;;;0.22;;
26303;SDS011;57113;48.680;8.890;2023-05-10T03:09:30;0.65;;;0.30;;
26303;SDS011;57113;48.680;8.890;2023-05-10T03:15:03;1.55;;;0.30;;
26303;SDS011;57113;48.680;8.890;2023-05-10T03:20:36;0.22;;;0.20;;
26303;SDS011;57113;48.680;8.890;2023-05-10T03:23:13;1.02;;;0.20;;
26303;SDS011;57113;48.680;8.890;2023-05-10T03:26:05;2.15;;;0.40;;
26303;SDS011;57113;48.680;8.890;2023-05-10T03:28:32;0.22;;;0.20;;
26303;SDS011;57113;48.680;8.890;2023-05-10T03:31:00;1.33;;;0.52;;
26303;SDS011;57113;48.680;8.890;2023-05-10T03:33:26;0.50;;;0.30;;
26303;SDS011;57113;48.680;8.890;2023-05-10T03:35:51;0.47;;;0.43;;
26303;SDS011;57113;48.680;8.890;2023-05-10T03:38:17;0.70;;;0.22;;
26303;SDS011;57113;48.680;8.890;2023-05-10T03:40:43;2.28;;;0.30;;
26303;SDS011;57113;48.680;8.890;2023-05-10T03:43:08;0.32;;;0.30;;
26303;SDS011;57113;48.680;8.890;2023-05-10T03:45:34;0.55;;;0.30;;
26303;SDS011;57113;48.680;8.890;2023-05-10T03:47:59;1.85;;;0.40;;
26303;SDS011;57113;48.680;8.890;2023-05-10T03:50:25;1.75;;;0.25;;
26303;SDS011;57113;48.680;8.890;2023-05-10T03:52:51;0.25;;;0.20;;
26303;SDS011;57113;48.680;8.890;2023-05-10T03:55:16;0.65;;;0.40;;
26303;SDS011;57113;48.680;8.890;2023-05-10T03:57:42;1.42;;;0.43;;
26303;SDS011;57113;48.680;8.890;2023-05-10T04:00:08;0.65;;;0.30;;
26303;SDS011;57113;48.680;8.890;2023-05-10T04:02:34;0.55;;;0.40;;
26303;SDS011;57113;48.680;8.890;2023-05-10T04:05:00;2.80;;;0.47;;
26303;SDS011;57113;48.680;8.890;2023-05-10T04:07:26;0.65;;;0.50;;
26303;SDS011;57113;48.680;8.890;2023-05-10T04:09:51;1.77;;;0.32;;
26303;SDS011;57113;48.680;8.890;2023-05-10T04:12:17;0.60;;;0.35;;
26303;SDS011;57113;48.680;8.890;2023-05-10T04:14:43;0.20;;;0.20;;
26303;SDS011;57113;48.680;8.890;2023-05-10T04:17:08;1.65;;;0.30;;
26303;SDS011;57113;48.680;8.890;2023-05-10T04:19:35;2.55;;;0.60;;
26303;SDS011;57113;48.680;8.890;2023-05-10T04:22:01;1.58;;;0.95;;
26303;SDS011;57113;48.680;8.890;2023-05-10T04:24:27;3.53;;;0.45;;
26303;SDS011;57113;48.680;8.890;2023-05-10T04:26:53;1.45;;;0.68;;
26303;SDS011;57113;48.680;8.890;2023-05-10T04:29:19;1.40;;;0.60;;
26303;SDS011;57113;48.680;8.890;2023-05-10T04:31:45;1.65;;;0.32;;
26303;SDS011;57113;48.680;8.890;2023-05-10T04:34:11;0.45;;;0.30;;
26303;SDS011;57113;48.680;8.890;2023-05-10T04:36:36;0.90;;;0.40;;
26303;SDS011;57113;48.680;8.890;2023-05-10T04:39:02;0.65;;;0.40;;
26303;SDS011;57113;48.680;8.890;2023-05-10T04:41:29;1.02;;;0.50;;
26303;SDS011;57113;48.680;8.890;2023-05-10T04:43:55;1.17;;;0.50;;
26303;SDS011;57113;48.680;8.890;2023-05-10T04:46:21;0.80;;;0.60;;
26303;SDS011;57113;48.680;8.890;2023-05-10T04:48:47;2.17;;;0.45;;
26303;SDS011;57113;48.680;8.890;2023-05-10T04:51:12;2.45;;;0.43;;
26303;SDS011;57113;48.680;8.890;2023-05-10T04:53:38;2.53;;;0.50;;
26303;SDS011;57113;48.680;8.890;2023-05-10T04:56:04;0.73;;;0.50;;
26303;SDS011;57113;48.680;8.890;2023-05-10T04:58:30;3.53;;;0.55;;
26303;SDS011;57113;48.680;8.890;2023-05-10T05:00:55;2.13;;;0.50;;
26303;SDS011;57113;48.680;8.890;2023-05-10T05:03:21;0.77;;;0.30;;
26303;SDS011;57113;48.680;8.890;2023-05-10T05:05:47;0.63;;;0.30;;
26303;SDS011;57113;48.680;8.890;2023-05-10T05:08:13;1.77;;;0.50;;
26303;SDS011;57113;48.680;8.890;2023-05-10T05:10:38;2.75;;;0.52;;
26303;SDS011;57113;48.680;8.890;2023-05-10T05:13:04;3.40;;;0.40;;
26303;SDS011;57113;48.680;8.890;2023-05-10T05:15:30;2.00;;;0.80;;
26303;SDS011;57113;48.680;8.890;2023-05-10T05:17:55;0.73;;;0.50;;
26303;SDS011;57113;48.680;8.890;2023-05-10T05:20:21;1.35;;;0.50;;
26303;SDS011;57113;48.680;8.890;2023-05-10T05:22:47;2.28;;;0.45;;
26303;SDS011;57113;48.680;8.890;2023-05-10T05:25:12;1.58;;;0.70;;
26303;SDS011;57113;48.680;8.890;2023-05-10T05:27:38;1.52;;;0.60;;
26303;SDS011;57113;48.680;8.890;2023-05-10T05:30:04;2.72;;;0.50;;
26303;SDS011;57113;48.680;8.890;2023-05-10T05:32:31;0.80;;;0.50;;
26303;SDS011;57113;48.680;8.890;2023-05-10T05:34:57;4.15;;;0.52;;
26303;SDS011;57113;48.680;8.890;2023-05-10T05:37:22;0.93;;;0.40;;
26303;SDS011;57113;48.680;8.890;2023-05-10T05:39:49;3.53;;;0.40;;
26303;SDS011;57113;48.680;8.890;2023-05-10T05:42:15;1.48;;;0.40;;
26303;SDS011;57113;48.680;8.890;2023-05-10T05:44:42;1.98;;;0.43;;
26303;SDS011;57113;48.680;8.890;2023-05-10T05:47:10;1.73;;;0.43;;
26303;SDS011;57113;48.680;8.890;2023-05-10T05:49:36;0.52;;;0.30;;
26303;SDS011;57113;48.680;8.890;2023-05-10T05:52:02;2.58;;;0.38;;
26303;SDS011;57113;48.680;8.890;2023-05-10T05:54:29;2.00;;;0.30;;
26303;SDS011;57113;48.680;8.890;2023-05-10T05:56:56;1.30;;;0.50;;
26303;SDS011;57113;48.680;8.890;2023-05-10T05:59:23;0.75;;;0.30;;
26303;SDS011;57113;48.680;8.890;2023-05-10T06:01:49;2.55;;;0.60;;
26303;SDS011;57113;48.680;8.890;2023-05-10T06:04:15;0.85;;;0.40;;
26303;SDS011;57113;48.680;8.890;2023-05-10T06:06:41;0.77;;;0.40;;
26303;SDS011;57113;48.680;8.890;2023-05-10T06:09:07;1.38;;;0.35;;
26303;SDS011;57113;48.680;8.890;2023-05-10T06:11:33;2.63;;;0.55;;
26303;SDS011;57113;48.680;8.890;2023-05-10T06:13:59;2.78;;;0.60;;
26303;SDS011;57113;48.680;8.890;2023-05-10T06:16:25;5.03;;;0.45;;
26303;SDS011;57113;48.680;8.890;2023-05-10T06:18:51;1.23;;;0.40;;
26303;SDS011;57113;48.680;8.890;2023-05-10T06:21:16;0.90;;;0.60;;
26303;SDS011;57113;48.680;8.890;2023-05-10T06:23:42;5.50;;;0.60;;
26303;SDS011;57113;48.680;8.890;2023-05-10T06:26:08;0.90;;;0.47;;
26303;SDS011;57113;48.680;8.890;2023-05-10T06:28:34;3.63;;;0.60;;
26303;SDS011;57113;48.680;8.890;2023-05-10T06:31:02;0.75;;;0.60;;
26303;SDS011;57113;48.680;8.890;2023-05-10T06:33:28;1.23;;;0.60;;
26303;SDS011;57113;48.680;8.890;2023-05-10T06:35:54;1.40;;;0.32;;
26303;SDS011;57113;48.680;8.890;2023-05-10T06:38:19;2.28;;;0.50;;
26303;SDS011;57113;48.680;8.890;2023-05-10T06:40:45;1.80;;;0.60;;
26303;SDS011;57113;48.680;8.890;2023-05-10T06:43:11;1.17;;;0.60;;
26303;SDS011;57113;48.680;8.890;2023-05-10T06:45:36;0.80;;;0.60;;
26303;SDS011;57113;48.680;8.890;2023-05-10T06:48:02;0.80;;;0.50;;
26303;SDS011;57113;48.680;8.890;2023-05-10T06:50:28;2.95;;;0.55;;
26303;SDS011;57113;48.680;8.890;2023-05-10T06:52:53;1.17;;;0.50;;
26303;SDS011;57113;48.680;8.890;2023-05-10T06:55:20;0.98;;;0.50;;
26303;SDS011;57113;48.680;8.890;2023-05-10T06:57:46;0.88;;;0.50;;
26303;SDS011;57113;48.680;8.890;2023-05-10T07:00:12;1.08;;;0.60;;
26303;SDS011;57113;48.680;8.890;2023-05-10T07:02:38;1.25;;;0.50;;
26303;SDS011;57113;48.680;8.890;2023-05-10T07:05:04;1.45;;;0.50;;
26303;SDS011;57113;48.680;8.890;2023-05-10T07:07:30;0.73;;;0.50;;
26303;SDS011;57113;48.680;8.890;2023-05-10T07:09:56;0.93;;;0.52;;
26303;SDS011;57113;48.680;8.890;2023-05-10T07:12:22;0.93;;;0.40;;
26303;SDS011;57113;48.680;8.890;2023-05-10T07:14:48;0.88;;;0.40;;
26303;SDS011;57113;48.680;8.890;2023-05-10T07:17:14;0.55;;;0.47;;
26303;SDS011;57113;48.680;8.890;2023-05-10T07:19:40;2.38;;;0.50;;
26303;SDS011;57113;48.680;8.890;2023-05-10T07:22:05;1.60;;;0.40;;
26303;SDS011;57113;48.680;8.890;2023-05-10T07:24:32;1.23;;;0.43;;
26303;SDS011;57113;48.680;8.890;2023-05-10T07:26:58;1.45;;;0.50;;
26303;SDS011;57113;48.680;8.890;2023-05-10T07:29:23;0.93;;;0.52;;
26303;SDS011;57113;48.680;8.890;2023-05-10T07:31:49;2.50;;;0.60;;
26303;SDS011;57113;48.680;8.890;2023-05-10T07:34:15;0.50;;;0.47;;
26303;SDS011;57113;48.680;8.890;2023-05-10T07:36:40;0.80;;;0.60;;
26303;SDS011;57113;48.680;8.890;2023-05-10T07:39:06;0.55;;;0.45;;
26303;SDS011;57113;48.680;8.890;2023-05-10T07:41:32;1.27;;;0.60;;
26303;SDS011;57113;48.680;8.890;2023-05-10T07:43:58;0.70;;;0.57;;
26303;SDS011;57113;48.680;8.890;2023-05-10T07:46:23;1.55;;;0.70;;
26303;SDS011;57113;48.680;8.890;2023-05-10T07:48:49;3.40;;;0.50;;
26303;SDS011;57113;48.680;8.890;2023-05-10T07:51:14;0.38;;;0.38;;
26303;SDS011;57113;48.680;8.890;2023-05-10T07:53:40;1.38;;;0.68;;
26303;SDS011;57113;48.680;8.890;2023-05-10T07:58:54;1.05;;;0.50;;
26303;SDS011;57113;48.680;8.890;2023-05-10T08:01:23;1.10;;;0.45;;
26303;SDS011;57113;48.680;8.890;2023-05-10T08:03:49;1.00;;;0.50;;
26303;SDS011;57113;48.680;8.890;2023-05-10T08:06:17;0.65;;;0.40;;
26303;SDS011;57113;48.680;8.890;2023-05-10T08:08:43;0.80;;;0.50;;
26303;SDS011;57113;48.680;8.890;2023-05-10T08:11:14;1.63;;;0.82;;
26303;SDS011;57113;48.680;8.890;2023-05-10T08:13:43;2.35;;;0.88;;
26303;SDS011;57113;48.680;8.890;2023-05-10T08:16:09;0.93;;;0.60;;
26303;SDS011;57113;48.680;8.890;2023-05-10T08:18:35;1.58;;;0.60;;
26303;SDS011;57113;48.680;8.890;2023-05-10T08:21:01;2.83;;;0.55;;
26303;SDS011;57113;48.680;8.890;2023-05-10T08:23:27;0.93;;;0.43;;
26303;SDS011;57113;48.680;8.890;2023-05-10T08:25:52;2.70;;;0.60;;
26303;SDS011;57113;48.680;8.890;2023-05-10T08:28:18;2.30;;;0.60;;
26303;SDS011;57113;48.680;8.890;2023-05-10T08:30:44;0.80;;;0.30;;
26303;SDS011;57113;48.680;8.890;2023-05-10T08:33:09;3.13;;;0.40;;
26303;SDS011;57113;48.680;8.890;2023-05-10T08:35:35;2.80;;;0.70;;
26303;SDS011;57113;48.680;8.890;2023-05-10T08:38:01;5.35;;;1.23;;
26303;SDS011;57113;48.680;8.890;2023-05-10T08:40:26;1.40;;;0.63;;
26303;SDS011;57113;48.680;8.890;2023-05-10T08:43:04;4.05;;;0.50;;
26303;SDS011;57113;48.680;8.890;2023-05-10T08:45:38;0.57;;;0.35;;
26303;SDS011;57113;48.680;8.890;2023-05-10T08:48:06;1.50;;;0.20;;
26303;SDS011;57113;48.680;8.890;2023-05-10T08:50:36;4.72;;;0.30;;
26303;SDS011;57113;48.680;8.890;2023-05-10T08:53:06;0.20;;;0.13;;
26303;SDS011;57113;48.680;8.890;2023-05-10T08:55:38;3.00;;;0.20;;
26303;SDS011;57113;48.680;8.890;2023-05-10T08:58:05;1.75;;;0.30;;
26303;SDS011;57113;48.680;8.890;2023-05-10T09:00:32;1.38;;;0.30;;
26303;SDS011;57113;48.680;8.890;2023-05-10T09:02:59;0.65;;;0.20;;
26303;SDS011;57113;48.680;8.890;2023-05-10T09:05:25;0.95;;;0.30;;
26303;SDS011;57113;48.680;8.890;2023-05-10T09:07:51;0.38;;;0.30;;
26303;SDS011;57113;48.680;8.890;2023-05-10T09:10:18;0.30;;;0.20;;
26303;SDS011;57113;48.680;8.890;2023-05-10T09:12:44;0.43;;;0.28;;
26303;SDS011;57113;48.680;8.890;2023-05-10T09:15:10;2.05;;;0.30;;
26303;SDS011;57113;48.680;8.890;2023-05-10T09:17:38;0.40;;;0.20;;
26303;SDS011;57113;48.680;8.890;2023-05-10T09:20:05;3.35;;;0.25;;
26303;SDS011;57113;48.680;8.890;2023-05-10T09:22:31;0.30;;;0.22;;
26303;SDS011;57113;48.680;8.890;2023-05-10T09:27:36;0.93;;;0.30;;
26303;SDS011;57113;48.680;8.890;2023-05-10T09:30:03;0.55;;;0.20;;
26303;SDS011;57113;48.680;8.890;2023-05-10T09:32:39;0.40;;;0.20;;
26303;SDS011;57113;48.680;8.890;2023-05-10T09:35:10;2.08;;;0.20;;
26303;SDS011;57113;48.680;8.890;2023-05-10T09:37:38;1.40;;;0.40;;
26303;SDS011;57113;48.680;8.890;2023-05-10T09:40:10;1.80;;;0.20;;
26303;SDS011;57113;48.680;8.890;2023-05-10T09:42:38;0.40;;;0.30;;
26303;SDS011;57113;48.680;8.890;2023-05-10T09:45:15;0.52;;;0.30;;
26303;SDS011;57113;48.680;8.890;2023-05-10T09:47:41;0.90;;;0.22;;
26303;SDS011;57113;48.680;8.890;2023-05-10T09:50:06;1.00;;;0.40;;
26303;SDS011;57113;48.680;8.890;2023-05-10T09:53:05;0.65;;;0.30;;
26303;SDS011;57113;48.680;8.890;2023-05-10T09:58:07;1.23;;;0.20;;
26303;SDS011;57113;48.680;8.890;2023-05-10T10:00:37;1.65;;;0.30;;
26303;SDS011;57113;48.680;8.890;2023-05-10T10:03:11;0.30;;;0.20;;
26303;SDS011;57113;48.680;8.890;2023-05-10T10:05:39;2.05;;;0.28;;
26303;SDS011;57113;48.680;8.890;2023-05-10T10:08:06;0.20;;;0.20;;
26303;SDS011;57113;48.680;8.890;2023-05-10T10:10:32;0.40;;;0.30;;
26303;SDS011;57113;48.680;8.890;2023-05-10T10:12:58;2.70;;;0.30;;
26303;SDS011;57113;48.680;8.890;2023-05-10T10:15:24;0.35;;;0.15;;
26303;SDS011;57113;48.680;8.890;2023-05-10T10:17:51;0.47;;;0.28;;
26303;SDS011;57113;48.680;8.890;2023-05-10T10:20:18;0.65;;;0.20;;
26303;SDS011;57113;48.680;8.890;2023-05-10T10:22:44;0.88;;;0.20;;
26303;SDS011;57113;48.680;8.890;2023-05-10T10:25:12;0.30;;;0.28;;
26303;SDS011;57113;48.680;8.890;2023-05-10T10:30:31;0.98;;;0.40;;
26303;SDS011;57113;48.680;8.890;2023-05-10T10:36:01;0.30;;;0.22;;
